Latest Weather Observations for Esperance Airport

IDW60801

Issued at 1:35 pm WST Saturday 23 August 2014 (issued every 30 minutes, with the page automatically refreshed every 10 minutes)

About weather observations | Map of weather stations | Latest weather observations for WA | Other Formats
Station Details ID: 009542 Name: ESPERANCE AERO Lat: -33.68 Lon: 121.83 Height: 142.0 m
Data from the previous 72 hours. | See also: Recent months at Esperance Airport
Date/Time
WST
Temp
°C
App
Temp
°C
Dew
Point
Rel
Hum
%
Delta-T
°C
Wind Press
QNH
hPa
Press
MSL
hPa
Rain
since 9 am
mm
Dir
 
Spd
km/h
Gust
km/h
Spd
kts
Gust
kts
23/01:30pm 18.6 14.0 6.4 45 6.1 N 20 33 11 18 1023.9 - 0.2
23/01:00pm 18.6 14.3 8.0 50 5.4 N 20 32 11 17 1024.7 - 0.2
23/12:30pm 17.7 13.4 7.7 52 5.1 N 20 32 11 17 1025.3 - 0.0
23/12:00pm 16.9 12.2 7.8 55 4.6 N 22 32 12 17 1025.4 1025.4 0.0
23/11:30am 16.3 11.4 8.3 59 4.1 N 24 32 13 17 1025.9 - 0.0
23/11:00am 15.7 10.5 8.9 64 3.5 N 26 32 14 17 1026.4 - 0.0
23/10:30am 14.6 9.8 8.8 68 3.0 N 24 33 13 18 1026.8 - 0.0
23/10:00am 13.5 8.3 8.8 73 2.4 N 26 35 14 19 1027.3 - 0.0
23/09:30am 13.0 8.8 9.8 81 1.7 N 22 30 12 16 1027.3 - 0.0
23/09:00am 10.7 5.3 7.8 82 1.4 N 26 33 14 18 1027.4 1027.5 0.0
23/08:30am 9.7 4.1 7.1 84 1.2 N 26 35 14 19 1027.5 - 0.0
23/08:00am 9.1 4.5 6.5 84 1.2 N 20 26 11 14 1027.5 - 0.0
23/07:30am 8.0 3.4 5.6 85 1.1 N 19 28 10 15 1027.2 - 0.0
23/07:00am 6.7 3.1 4.9 88 0.8 NNE 13 17 7 9 1026.8 - 0.0
23/06:30am 6.1 2.0 4.6 90 0.7 NNE 15 17 8 9 1026.4 - 0.0
23/06:00am 6.1 2.4 4.4 89 0.7 NNE 13 17 7 9 1026.2 1026.3 0.0
23/05:30am 6.3 2.3 4.8 90 0.7 NNE 15 19 8 10 1025.8 - 0.0
23/05:00am 6.4 2.4 4.9 90 0.7 NNE 15 20 8 11 1025.6 - 0.0
23/04:30am 6.0 1.6 4.6 91 0.6 NNE 17 20 9 11 1025.6 - 0.0
23/04:00am 6.2 2.2 5.0 92 0.5 NNE 15 19 8 10 1025.4 - 0.0
23/03:30am 6.5 2.2 5.3 92 0.5 NNE 17 20 9 11 1025.3 - 0.0
23/03:00am 6.6 2.7 5.2 91 0.6 NNE 15 20 8 11 1025.3 1025.3 0.0
23/02:30am 6.7 3.5 5.2 90 0.7 NNE 11 13 6 7 1025.3 - 0.0
23/02:00am 6.6 3.4 4.9 89 0.7 NNE 11 15 6 8 1025.7 - 0.0
23/01:30am 7.2 3.8 6.0 92 0.5 NNE 13 17 7 9 1025.9 - 0.0
23/01:00am 5.6 2.4 4.9 95 0.3 N 11 15 6 8 1026.1 - 0.0
23/12:30am 5.8 2.2 4.8 93 0.4 NNE 13 15 7 8 1026.2 - 0.0
23/12:00am 6.5 3.5 6.1 97 0.2 NNE 11 13 6 7 1026.0 1026.1 0.0
 
Date/Time
WST
Temp
°C
App
Temp
°C
Dew
Point
Rel
Hum
%
Delta-T
°C
Wind Press
QNH
hPa
Press
MSL
hPa
Rain
since 9 am
mm
Dir
 
Spd
km/h
Gust
km/h
Spd
kts
Gust
kts
22/11:30pm 7.3 4.6 5.8 90 0.7 NE 9 9 5 5 1025.9 - 0.0
22/11:00pm 9.0 6.6 7.0 87 0.9 ENE 9 11 5 6 1025.9 - 0.0
22/10:30pm 10.0 7.7 7.6 85 1.2 E 9 11 5 6 1025.9 - 0.0
22/10:00pm 9.0 7.0 7.0 87 0.9 E 7 9 4 5 1026.0 - 0.0
22/09:30pm 10.1 7.8 7.3 83 1.3 SE 9 9 5 5 1025.8 - 0.0
22/09:00pm 10.2 8.0 7.8 85 1.2 SE 9 11 5 6 1025.8 1025.8 0.0
22/08:30pm 9.9 7.6 7.5 85 1.2 SSE 9 11 5 6 1025.8 - 0.0
22/08:00pm 10.2 8.4 7.8 85 1.2 SSE 7 7 4 4 1025.6 - 0.0
22/07:30pm 9.9 9.4 7.7 86 1.1 CALM 0 0 0 0 1025.5 - 0.0
22/07:00pm 9.0 7.7 7.6 91 0.7 NNW 4 6 2 3 1025.0 - 0.0
22/06:30pm 9.9 9.4 8.0 88 0.9 CALM 0 0 0 0 1024.5 - 0.0
22/06:00pm 10.5 8.3 7.9 84 1.3 SW 9 9 5 5 1024.3 1024.3 0.0
22/05:30pm 11.2 8.6 7.9 80 1.6 SSW 11 13 6 7 1023.9 - 0.0
22/05:00pm 13.2 9.5 8.1 71 2.5 SSW 17 20 9 11 1023.5 - 0.0
22/04:30pm 14.4 10.2 8.1 66 3.2 SW 20 28 11 15 1023.0 - 0.0
22/04:00pm 14.9 10.4 8.4 65 3.3 SSW 22 30 12 16 1022.6 - 0.0
22/03:30pm 15.4 11.7 10.0 70 2.8 SW 20 26 11 14 1022.2 - 0.0
22/03:00pm 14.8 10.6 9.8 72 2.6 S 22 28 12 15 1021.9 1022.0 0.0
22/02:30pm 14.7 9.2 9.3 70 2.8 SW 28 35 15 19 1021.7 - 0.0
22/02:00pm 15.3 10.0 9.7 69 2.9 SW 28 39 15 21 1021.4 - 0.0
22/01:30pm 14.5 8.5 8.7 68 3.0 SW 30 41 16 22 1021.5 - 0.0
22/01:00pm 13.5 7.2 9.0 74 2.3 SW 32 48 17 26 1021.5 - 0.0
22/12:42pm 15.3 9.6 11.3 77 2.2 SW 32 43 17 23 1021.3 - 0.0
22/12:30pm 13.0 6.4 11.4 90 0.9 SW 37 57 20 31 1021.2 - 0.0
22/12:28pm 12.5 5.3 10.6 88 1.0 SW 39 57 21 31 1021.2 - 0.0
22/12:22pm 14.6 7.8 9.4 71 2.7 WSW 35 57 19 31 1021.0 - 0.0
22/12:00pm 15.4 8.5 10.4 72 2.6 SW 37 50 20 27 1020.8 1020.9 0.0
22/11:30am 15.7 7.7 8.9 64 3.5 WSW 41 54 22 29 1020.8 - 0.0
22/11:00am 16.1 9.9 10.2 68 3.1 WSW 33 44 18 24 1020.7 - 0.0
22/10:30am 15.6 9.2 10.6 72 2.7 W 35 46 19 25 1020.5 - 0.0
22/10:20am 14.7 8.6 10.5 76 2.2 W 33 52 18 28 1020.5 - 0.0
22/10:00am 14.9 7.2 10.3 74 2.4 W 41 52 22 28 1020.3 - 0.0
22/09:30am 14.5 7.7 10.7 78 2.0 W 37 46 20 25 1019.8 - 0.0
22/09:00am 14.4 8.7 11.7 84 1.5 W 33 48 18 26 1019.4 1019.4 2.4
22/08:30am 13.6 7.7 11.3 86 1.2 W 33 44 18 24 1019.0 - 2.4
22/08:00am 13.1 8.3 11.5 90 0.9 W 28 35 15 19 1018.5 - 2.4
22/07:30am 12.1 8.3 11.3 95 0.4 W 22 28 12 15 1018.1 - 2.4
22/07:00am 11.0 7.7 10.8 99 0.1 WNW 19 22 10 12 1017.6 - 2.4
22/06:30am 10.5 7.4 10.3 99 0.1 WNW 17 22 9 12 1017.0 - 2.4
22/06:00am 11.1 7.5 10.6 97 0.3 WNW 20 28 11 15 1016.4 1016.5 2.4
22/05:30am 11.7 7.9 11.1 96 0.3 WNW 22 28 12 15 1015.8 - 2.4
22/05:00am 12.3 8.7 11.7 96 0.3 W 22 28 12 15 1015.4 - 2.4
22/04:30am 12.4 8.4 11.8 96 0.3 WNW 24 32 13 17 1014.9 - 2.4
22/04:00am 12.3 8.7 12.0 98 0.2 WNW 22 28 12 15 1014.4 - 2.4
22/03:30am 12.3 9.3 12.1 99 0.1 WNW 19 24 10 13 1014.4 - 2.4
22/03:00am 12.4 9.5 12.4 100 0.0 WNW 19 26 10 14 1014.0 1014.0 2.4
22/02:30am 11.9 9.6 11.9 100 0.0 NW 15 20 8 11 1014.1 - 2.4
22/02:05am 11.8 9.5 11.8 100 0.0 NW 15 17 8 9 1014.0 - 2.4
22/02:00am 11.7 9.7 11.5 99 0.1 NW 13 17 7 9 1014.0 - 2.4
22/01:41am 11.2 9.1 11.0 99 0.1 NW 13 15 7 8 1014.0 - 2.4
22/01:30am 11.6 9.6 11.4 99 0.1 NNW 13 17 7 9 1013.8 - 2.4
22/01:23am 11.5 9.4 11.3 99 0.1 NNW 13 15 7 8 1013.7 - 2.4
22/01:00am 11.8 10.2 11.6 99 0.1 NW 11 13 6 7 1013.9 - 2.4
22/12:32am 11.7 10.5 11.5 99 0.1 WNW 9 11 5 6 1013.8 - 2.4
22/12:30am 11.8 10.6 11.6 99 0.1 WNW 9 11 5 6 1013.9 - 2.4
22/12:27am 11.9 10.7 11.7 99 0.1 WNW 9 13 5 7 1013.9 - 2.4
22/12:00am 12.9 11.7 12.7 99 0.1 NW 11 13 6 7 1013.9 1013.9 2.4
 
Date/Time
WST
Temp
°C
App
Temp
°C
Dew
Point
Rel
Hum
%
Delta-T
°C
Wind Press
QNH
hPa
Press
MSL
hPa
Rain
since 9 am
mm
Dir
 
Spd
km/h
Gust
km/h
Spd
kts
Gust
kts
21/11:30pm 13.9 12.2 13.7 99 0.1 W 15 19 8 10 1014.0 - 2.4
21/11:00pm 13.8 11.7 13.6 99 0.1 W 17 20 9 11 1013.9 - 2.4
21/10:40pm 14.2 11.2 13.6 96 0.3 W 22 28 12 15 1013.9 - 2.4
21/10:30pm 14.0 10.8 13.1 94 0.5 W 22 30 12 16 1013.8 - 2.4
21/10:00pm 14.9 12.5 13.8 93 0.6 NNW 19 22 10 12 1013.3 - 2.4
21/09:30pm 14.6 12.1 13.5 93 0.6 NNW 19 24 10 13 1013.4 - 2.4
21/09:00pm 14.7 13.0 13.7 94 0.6 NNW 15 19 8 10 1013.3 1013.3 2.4
21/08:30pm 15.2 13.5 13.7 91 0.8 NNW 15 20 8 11 1013.5 - 2.4
21/08:00pm 15.7 13.8 14.1 90 0.9 NW 17 22 9 12 1013.3 - 2.4
21/07:30pm 15.9 14.5 14.4 91 0.9 NNW 15 20 8 11 1013.2 - 2.4
21/07:00pm 15.6 14.2 14.6 94 0.6 NW 15 17 8 9 1012.8 - 2.4
21/06:30pm 16.0 15.2 15.2 95 0.5 NW 13 19 7 10 1012.3 - 2.4
21/06:00pm 15.0 14.5 14.8 99 0.1 N 11 13 6 7 1012.3 1012.3 2.4
21/05:30pm 16.3 15.2 15.2 93 0.6 NNW 15 19 8 10 1011.9 - 2.4
21/05:00pm 16.7 15.4 15.7 94 0.6 WNW 17 28 9 15 1011.5 - 2.4
21/04:30pm 16.9 18.8 15.8 93 0.7 CALM 0 0 0 0 1011.3 - 2.4
21/04:00pm 16.5 18.0 15.7 95 0.5 N 2 6 1 3 1011.3 - 2.4
21/03:52pm 16.3 16.7 15.3 94 0.6 NNW 7 13 4 7 1011.2 - 2.4
21/03:32pm 16.6 16.7 15.6 94 0.6 W 9 13 5 7 1011.4 - 2.2
21/03:30pm 16.7 16.8 15.6 93 0.6 W 9 11 5 6 1011.4 - 2.2
21/03:00pm 17.6 17.4 14.7 83 1.7 NW 9 19 5 10 1010.8 1010.8 2.0
21/02:30pm 18.5 18.0 14.8 79 2.2 NW 11 17 6 9 1010.4 - 1.4
21/02:06pm 17.4 17.4 15.2 87 1.3 NW 9 11 5 6 1010.4 - 1.4
21/02:00pm 17.2 16.7 15.0 87 1.3 WNW 11 15 6 8 1010.4 - 1.4
21/01:46pm 16.9 16.1 14.0 83 1.7 NNW 11 17 6 9 1010.4 - 0.8
21/01:30pm 17.2 15.0 13.3 78 2.2 W 17 26 9 14 1010.3 - 0.0
21/01:00pm 20.1 17.1 11.8 59 4.6 W 19 26 10 14 1010.6 - 0.0
21/12:30pm 21.2 17.2 11.8 55 5.3 WNW 24 33 13 18 1010.8 - 0.0
21/12:00pm 20.8 16.2 11.2 54 5.3 NW 26 39 14 21 1011.1 1011.1 0.0
21/11:30am 20.4 14.6 10.8 54 5.3 NNW 32 44 17 24 1011.2 - 0.0
21/11:00am 20.7 14.5 10.2 51 5.7 NNW 33 44 18 24 1011.3 - 0.0
21/10:30am 20.7 14.6 11.9 57 4.9 N 35 44 19 24 1011.5 - 0.0
21/10:00am 19.6 13.3 11.1 58 4.7 N 35 46 19 25 1011.7 - 0.0
21/09:30am 17.8 13.0 11.6 67 3.4 N 28 39 15 21 1011.9 - 0.0
21/09:00am 16.8 12.1 11.9 73 2.7 N 28 35 15 19 1011.7 1011.7 0.2
21/08:30am 15.3 10.8 11.3 77 2.2 N 26 32 14 17 1012.1 - 0.2
21/08:00am 14.2 10.4 11.2 82 1.6 N 22 28 12 15 1012.5 - 0.2
21/07:30am 12.1 8.0 10.0 87 1.1 N 22 26 12 14 1012.5 - 0.2
21/07:00am 10.8 6.5 9.2 90 0.8 N 22 26 12 14 1012.7 - 0.2
21/06:30am 10.1 6.1 9.0 93 0.5 N 20 26 11 14 1012.6 - 0.2
21/06:00am 10.1 6.1 8.9 92 0.6 N 20 24 11 13 1012.5 1012.5 0.2
21/05:30am 10.6 6.8 9.0 90 0.8 N 19 22 10 12 1012.5 - 0.2
21/05:00am 10.5 7.4 8.9 90 0.8 N 15 17 8 9 1012.6 - 0.2
21/04:30am 10.4 7.3 8.7 89 0.8 N 15 17 8 9 1012.9 - 0.2
21/04:00am 10.9 7.9 9.2 89 0.9 N 15 20 8 11 1012.9 - 0.2
21/03:30am 9.6 7.2 8.5 93 0.5 N 11 13 6 7 1013.1 - 0.2
21/03:00am 11.4 8.4 9.1 86 1.2 N 15 19 8 10 1013.1 1013.1 0.2
21/02:30am 12.3 9.8 9.7 84 1.3 NNE 13 17 7 9 1013.2 - 0.2
21/02:00am 12.3 8.7 9.7 84 1.3 N 19 22 10 12 1013.6 - 0.2
21/01:30am 10.9 8.2 8.8 87 1.0 N 13 17 7 9 1013.9 - 0.2
21/01:00am 12.5 10.1 9.9 84 1.3 N 13 17 7 9 1014.2 - 0.2
21/12:30am 12.7 10.0 10.4 86 1.2 N 15 17 8 9 1014.6 - 0.2
21/12:00am 12.4 10.1 10.3 87 1.1 N 13 15 7 8 1014.6 1014.7 0.2
 
Date/Time
WST
Temp
°C
App
Temp
°C
Dew
Point
Rel
Hum
%
Delta-T
°C
Wind Press
QNH
hPa
Press
MSL
hPa
Rain
since 9 am
mm
Dir
 
Spd
km/h
Gust
km/h
Spd
kts
Gust
kts
20/11:30pm 13.8 12.3 10.4 80 1.8 N 9 11 5 6 1014.8 - 0.2
20/11:00pm 14.2 12.8 11.0 81 1.7 N 9 11 5 6 1015.1 - 0.2
20/10:30pm 14.4 13.0 11.0 80 1.8 NNW 9 9 5 5 1015.4 - 0.2
20/10:00pm 13.2 11.3 10.6 84 1.4 N 11 13 6 7 1015.6 - 0.2
20/09:30pm 14.2 12.5 11.2 82 1.6 N 11 13 6 7 1015.8 - 0.2
20/09:00pm 14.7 13.3 10.9 78 2.0 N 9 11 5 6 1016.0 1016.1 0.2
20/08:30pm 15.1 13.8 11.1 77 2.1 N 9 9 5 5 1016.1 - 0.2
20/08:00pm 15.1 13.8 11.1 77 2.1 N 9 9 5 5 1016.0 - 0.2
20/07:30pm 15.0 13.7 11.4 79 1.9 N 9 9 5 5 1016.0 - 0.2
20/07:00pm 15.2 13.9 11.4 78 2.1 N 9 11 5 6 1015.6 - 0.2
20/06:30pm 15.8 14.1 11.2 74 2.5 N 11 15 6 8 1015.5 - 0.2
20/06:00pm 16.1 14.9 11.7 75 2.4 N 9 11 5 6 1015.3 1015.4 0.2
20/05:30pm 16.3 15.8 12.7 79 2.0 N 7 9 4 5 1015.1 - 0.2
20/05:00pm 16.3 15.5 12.8 80 2.0 N 9 11 5 6 1015.0 - 0.2
20/04:30pm 17.5 16.5 12.2 71 2.9 NNE 9 13 5 7 1014.6 - 0.2
20/04:00pm 18.7 17.1 11.5 63 4.0 NNW 11 15 6 8 1014.7 - 0.2
20/03:30pm 18.9 16.8 11.0 60 4.3 NW 13 19 7 10 1014.6 - 0.2
20/03:00pm 19.3 17.4 11.8 62 4.2 NNW 13 19 7 10 1014.6 1014.7 0.2
20/02:30pm 19.1 18.0 12.1 64 3.9 NNW 9 17 5 9 1014.8 - 0.2
20/02:00pm 18.5 16.9 12.7 69 3.3 N 13 17 7 9 1014.8 - 0.2

Other Formats:

Comma delimited format used in spreadsheet applications
http://www.bom.gov.au/fwo/IDW60801/IDW60801.95638.axf

JavaScript Object Notation format (JSON) in row-major order
http://www.bom.gov.au/fwo/IDW60801/IDW60801.95638.json